createdAt,value
2019-03-21T00:00:10.063Z,0
2019-03-21T00:01:09.790Z,0
2019-03-21T00:02:10.015Z,0
2019-03-21T00:03:09.755Z,0
2019-03-21T00:04:09.991Z,0
2019-03-21T00:05:09.961Z,0
2019-03-21T00:06:09.985Z,0
2019-03-21T00:07:09.932Z,0
2019-03-21T00:08:09.912Z,0
2019-03-21T00:09:09.390Z,0
2019-03-21T00:10:09.872Z,0
2019-03-21T00:11:09.606Z,0
2019-03-21T00:12:09.841Z,0
2019-03-21T00:13:09.867Z,0
2019-03-21T00:14:16.445Z,0
2019-03-21T00:15:09.630Z,0
2019-03-21T00:16:09.513Z,0
2019-03-21T00:17:09.744Z,0
2019-03-21T00:18:09.475Z,0
2019-03-21T00:19:09.698Z,0
2019-03-21T00:20:09.869Z,0
2019-03-21T00:21:15.758Z,0
2019-03-21T00:22:09.652Z,0
2019-03-21T00:23:09.648Z,0
2019-03-21T00:24:09.174Z,0
2019-03-21T00:25:09.548Z,0
2019-03-21T00:26:09.331Z,0
2019-03-21T00:27:09.559Z,0
2019-03-21T00:28:09.287Z,0
2019-03-21T00:29:09.263Z,0
2019-03-21T00:30:09.498Z,0
2019-03-21T00:31:09.235Z,0
2019-03-21T00:32:09.209Z,0
2019-03-21T00:33:09.441Z,0
2019-03-21T00:34:09.419Z,0
2019-03-21T00:35:09.158Z,0
2019-03-21T00:36:09.393Z,0
2019-03-21T00:37:09.366Z,0
2019-03-21T00:38:09.099Z,0
2019-03-21T00:39:09.326Z,0
2019-03-21T00:40:09.310Z,0
2019-03-21T00:41:08.813Z,0
2019-03-21T00:42:09.278Z,0
2019-03-21T00:43:08.755Z,0
2019-03-21T00:44:20.128Z,0
2019-03-21T00:45:09.220Z,0
2019-03-21T00:46:09.209Z,0
2019-03-21T00:47:08.927Z,0
2019-03-21T00:48:08.915Z,0
2019-03-21T00:49:08.643Z,0
2019-03-21T00:50:09.143Z,0
2019-03-21T00:51:09.123Z,0
2019-03-21T00:52:09.090Z,0
2019-03-21T00:53:09.114Z,0
2019-03-21T00:54:09.142Z,0
2019-03-21T00:55:08.782Z,0
2019-03-21T00:56:09.005Z,0
2019-03-21T00:57:08.756Z,0
2019-03-21T00:58:08.970Z,0
2019-03-21T00:59:09.054Z,0
2019-03-21T01:00:08.945Z,0
2019-03-21T01:01:08.721Z,0
2019-03-21T01:02:08.407Z,0
2019-03-21T01:03:10.866Z,0
2019-03-21T01:04:08.368Z,0
2019-03-21T01:05:08.842Z,0
2019-03-21T01:06:08.841Z,0
2019-03-21T01:07:08.602Z,0
2019-03-21T01:08:08.793Z,0
2019-03-21T01:09:08.523Z,0
2019-03-21T01:10:08.757Z,0
2019-03-21T01:11:08.737Z,0
2019-03-21T01:12:08.474Z,0
2019-03-21T01:13:08.701Z,0
2019-03-21T01:14:08.420Z,0
2019-03-21T01:15:08.661Z,0
2019-03-21T01:16:08.638Z,0
2019-03-21T01:17:08.682Z,0
2019-03-21T01:18:08.598Z,0
2019-03-21T01:19:08.579Z,0
2019-03-21T01:20:08.560Z,0
2019-03-21T01:21:08.555Z,0
2019-03-21T01:22:08.275Z,0
2019-03-21T01:23:08.506Z,0
2019-03-21T01:24:08.484Z,0
2019-03-21T01:25:08.469Z,0
2019-03-21T01:26:07.960Z,0
2019-03-21T01:27:08.430Z,0
2019-03-21T01:28:08.410Z,0
2019-03-21T01:29:08.389Z,0
2019-03-21T01:30:07.885Z,0
2019-03-21T01:31:08.356Z,0
2019-03-21T01:32:08.339Z,0
2019-03-21T01:33:08.368Z,0
2019-03-21T01:34:08.293Z,0
2019-03-21T01:35:08.366Z,0
2019-03-21T01:36:08.267Z,0
2019-03-21T01:37:08.308Z,0
2019-03-21T01:38:08.246Z,0
2019-03-21T01:39:08.221Z,0
2019-03-21T01:40:07.948Z,0
2019-03-21T01:41:08.167Z,0
2019-03-21T01:42:08.155Z,0
2019-03-21T01:43:08.133Z,0
2019-03-21T01:44:07.611Z,0
2019-03-21T01:45:08.126Z,0
2019-03-21T01:46:08.087Z,0
2019-03-21T01:47:07.804Z,0
2019-03-21T01:48:07.545Z,0
2019-03-21T01:49:08.019Z,0
2019-03-21T01:50:08.001Z,0
2019-03-21T01:51:07.981Z,0
2019-03-21T01:52:07.966Z,0
2019-03-21T01:53:07.953Z,0
2019-03-21T01:54:07.485Z,0
2019-03-21T01:55:07.655Z,0
2019-03-21T01:56:07.885Z,0
2019-03-21T01:57:07.876Z,0
2019-03-21T01:58:07.859Z,0
2019-03-21T01:59:07.339Z,0
2019-03-21T02:00:07.824Z,0
2019-03-21T02:01:08.874Z,0
2019-03-21T02:02:07.538Z,0
2019-03-21T02:03:07.756Z,0
2019-03-21T02:04:07.739Z,0
2019-03-21T02:05:07.225Z,0
2019-03-21T02:06:07.709Z,0
2019-03-21T02:07:07.685Z,0
2019-03-21T02:08:07.687Z,0
2019-03-21T02:09:07.647Z,0
2019-03-21T02:10:07.627Z,0
2019-03-21T02:11:07.605Z,0
2019-03-21T02:12:07.644Z,0
2019-03-21T02:13:07.567Z,0
2019-03-21T02:14:07.563Z,0
2019-03-21T02:15:07.522Z,0
2019-03-21T02:16:08.827Z,0
2019-03-21T02:17:07.247Z,0
2019-03-21T02:18:07.228Z,0
2019-03-21T02:19:07.217Z,0
2019-03-21T02:20:07.439Z,0
2019-03-21T02:21:07.432Z,0
2019-03-21T02:22:07.427Z,0
2019-03-21T02:23:07.378Z,0
2019-03-21T02:24:07.367Z,0
2019-03-21T02:25:07.490Z,0
2019-03-21T02:26:07.082Z,0
2019-03-21T02:27:07.307Z,0
2019-03-21T02:28:07.283Z,0
2019-03-21T02:29:07.290Z,0
2019-03-21T02:30:07.442Z,0
2019-03-21T02:31:07.009Z,0
2019-03-21T02:32:06.976Z,0
2019-03-21T02:33:07.229Z,0
2019-03-21T02:34:07.176Z,0
2019-03-21T02:35:06.940Z,0
2019-03-21T02:36:06.915Z,0
2019-03-21T02:37:07.146Z,0
2019-03-21T02:38:07.111Z,0
2019-03-21T02:39:06.857Z,0
2019-03-21T02:40:09.607Z,0
2019-03-21T02:41:07.107Z,0
2019-03-21T02:42:06.814Z,0
2019-03-21T02:43:06.528Z,0
2019-03-21T02:44:07.003Z,0
2019-03-21T02:45:18.889Z,0
2019-03-21T02:46:06.725Z,0
2019-03-21T02:47:06.948Z,0
2019-03-21T02:48:06.912Z,0
2019-03-21T02:49:07.056Z,0
2019-03-21T02:50:06.898Z,0
2019-03-21T02:51:06.855Z,0
2019-03-21T02:52:06.661Z,0
2019-03-21T02:53:06.830Z,0
2019-03-21T02:54:06.914Z,0
2019-03-21T02:55:06.779Z,0
2019-03-21T02:56:06.866Z,0
2019-03-21T02:57:06.525Z,0
2019-03-21T02:58:06.509Z,0
2019-03-21T02:59:06.471Z,0
2019-03-21T03:00:06.690Z,0
2019-03-21T03:01:06.458Z,0
2019-03-21T03:02:06.645Z,0
2019-03-21T03:03:06.666Z,0
2019-03-21T03:04:06.613Z,0
2019-03-21T03:05:06.654Z,0
2019-03-21T03:06:06.577Z,0
2019-03-21T03:07:07.117Z,0
2019-03-21T03:08:06.555Z,0
2019-03-21T03:09:06.519Z,0
2019-03-21T03:10:06.268Z,0
2019-03-21T03:11:06.511Z,0
2019-03-21T03:12:06.234Z,0
2019-03-21T03:13:06.192Z,0
2019-03-21T03:14:09.384Z,0
2019-03-21T03:15:06.457Z,0
2019-03-21T03:16:06.140Z,0
2019-03-21T03:17:06.384Z,0
2019-03-21T03:18:06.355Z,0
2019-03-21T03:19:06.332Z,0
2019-03-21T03:20:06.067Z,0
2019-03-21T03:21:06.302Z,0
2019-03-21T03:22:06.297Z,0
2019-03-21T03:23:06.264Z,0
2019-03-21T03:24:06.249Z,0
2019-03-21T03:25:06.224Z,0
2019-03-21T03:26:06.209Z,0
2019-03-21T03:27:06.182Z,0
2019-03-21T03:28:05.919Z,0
2019-03-21T03:29:05.405Z,0
2019-03-21T03:30:06.144Z,0
2019-03-21T03:31:06.266Z,0
2019-03-21T03:32:05.650Z,0
2019-03-21T03:33:06.137Z,0
2019-03-21T03:34:05.910Z,0
2019-03-21T03:35:06.187Z,0
2019-03-21T03:36:05.791Z,0
2019-03-21T03:37:05.750Z,0
2019-03-21T03:38:06.057Z,0
2019-03-21T03:39:05.959Z,0
2019-03-21T03:40:05.970Z,0
2019-03-21T03:41:05.916Z,0
2019-03-21T03:42:05.657Z,0
2019-03-21T03:43:05.676Z,0
2019-03-21T03:44:05.389Z,0
2019-03-21T03:45:05.903Z,0
2019-03-21T03:46:05.935Z,0
2019-03-21T03:47:05.826Z,0
2019-03-21T03:48:05.793Z,0
2019-03-21T03:49:05.537Z,0
2019-03-21T03:50:05.741Z,0
2019-03-21T03:51:05.244Z,0
2019-03-21T03:52:05.491Z,0
2019-03-21T03:53:05.471Z,0
2019-03-21T03:54:05.469Z,0
2019-03-21T03:55:05.651Z,0
2019-03-21T03:56:05.390Z,0
2019-03-21T03:57:05.369Z,0
2019-03-21T03:58:05.692Z,0
2019-03-21T03:59:05.078Z,0
2019-03-21T04:00:05.565Z,0
2019-03-21T04:01:05.366Z,0
2019-03-21T04:02:05.523Z,0
2019-03-21T04:03:05.499Z,0
2019-03-21T04:04:05.507Z,0
2019-03-21T04:05:05.470Z,0
2019-03-21T04:06:05.462Z,0
2019-03-21T04:07:05.421Z,0
2019-03-21T04:08:05.432Z,0
2019-03-21T04:09:05.173Z,0
2019-03-21T04:10:05.382Z,0
2019-03-21T04:11:05.385Z,0
2019-03-21T04:12:05.326Z,0
2019-03-21T04:13:05.307Z,0
2019-03-21T04:14:04.805Z,0
2019-03-21T04:15:05.281Z,0
2019-03-21T04:16:05.298Z,0
2019-03-21T04:17:04.998Z,0
2019-03-21T04:18:05.401Z,0
2019-03-21T04:19:05.203Z,0
2019-03-21T04:20:04.953Z,0
2019-03-21T04:21:04.666Z,0
2019-03-21T04:22:05.148Z,0
2019-03-21T04:23:05.130Z,0
2019-03-21T04:24:07.071Z,0
2019-03-21T04:25:04.695Z,0
2019-03-21T04:26:05.188Z,0
2019-03-21T04:27:05.058Z,0
2019-03-21T04:28:05.030Z,0
2019-03-21T04:29:05.006Z,0
2019-03-21T04:30:05.152Z,0
2019-03-21T04:31:05.134Z,0
2019-03-21T04:32:04.702Z,0
2019-03-21T04:33:04.926Z,0
2019-03-21T04:34:04.915Z,0
2019-03-21T04:35:05.089Z,0
2019-03-21T04:36:04.656Z,0
2019-03-21T04:37:04.852Z,0
2019-03-21T04:38:04.834Z,0
2019-03-21T04:39:04.653Z,0
2019-03-21T04:40:04.822Z,0
2019-03-21T04:41:04.787Z,0
2019-03-21T04:42:04.760Z,0
2019-03-21T04:43:04.741Z,0
2019-03-21T04:44:04.714Z,0
2019-03-21T04:45:04.694Z,0
2019-03-21T04:46:13.103Z,0
2019-03-21T04:47:04.405Z,0
2019-03-21T04:48:04.635Z,0
2019-03-21T04:49:04.631Z,0
2019-03-21T04:50:04.596Z,0
2019-03-21T04:51:04.587Z,0
2019-03-21T04:52:04.478Z,0
2019-03-21T04:53:04.296Z,0
2019-03-21T04:54:04.552Z,0
2019-03-21T04:55:04.505Z,0
2019-03-21T04:56:04.492Z,0
2019-03-21T04:57:04.471Z,0
2019-03-21T04:58:04.457Z,0
2019-03-21T04:59:04.186Z,0
2019-03-21T05:00:06.147Z,0
2019-03-21T05:01:04.399Z,0
2019-03-21T05:02:04.381Z,0
2019-03-21T05:03:03.873Z,0
2019-03-21T05:04:04.332Z,0
2019-03-21T05:05:04.072Z,0
2019-03-21T05:06:04.310Z,0
2019-03-21T05:07:04.039Z,0
2019-03-21T05:08:04.006Z,0
2019-03-21T05:09:04.292Z,0
2019-03-21T05:10:04.246Z,5
2019-03-21T05:11:03.951Z,5
2019-03-21T05:12:04.179Z,5
2019-03-21T05:13:03.914Z,5
2019-03-21T05:14:04.142Z,5
2019-03-21T05:15:04.127Z,5
2019-03-21T05:16:14.233Z,5
2019-03-21T05:17:04.100Z,10
2019-03-21T05:18:04.091Z,10
2019-03-21T05:19:04.052Z,10
2019-03-21T05:20:04.022Z,10
2019-03-21T05:21:03.784Z,10
2019-03-21T05:22:03.753Z,15
2019-03-21T05:23:03.980Z,15
2019-03-21T05:24:03.945Z,15
2019-03-21T05:25:03.933Z,15
2019-03-21T05:26:06.550Z,20
2019-03-21T05:27:03.965Z,20
2019-03-21T05:28:03.876Z,20
2019-03-21T05:29:03.626Z,20
2019-03-21T05:30:03.887Z,25
2019-03-21T05:31:03.578Z,25
2019-03-21T05:32:06.178Z,25
2019-03-21T05:33:03.053Z,25
2019-03-21T05:34:03.275Z,25
2019-03-21T05:35:03.498Z,30
2019-03-21T05:36:03.231Z,30
2019-03-21T05:37:03.715Z,30
2019-03-21T05:38:03.704Z,30
2019-03-21T05:39:03.679Z,30
2019-03-21T05:40:03.654Z,35
2019-03-21T05:41:03.388Z,35
2019-03-21T05:42:03.612Z,35
2019-03-21T05:43:03.345Z,35
2019-03-21T05:44:03.584Z,35
2019-03-21T05:45:03.575Z,35
2019-03-21T05:46:03.293Z,40
2019-03-21T05:47:03.273Z,40
2019-03-21T05:48:03.501Z,40
2019-03-21T05:49:03.480Z,40
2019-03-21T05:50:03.492Z,40
2019-03-21T05:51:03.469Z,45
2019-03-21T05:52:03.427Z,45
2019-03-21T05:53:03.226Z,45
2019-03-21T05:54:03.141Z,45
2019-03-21T05:55:02.876Z,45
2019-03-21T05:56:03.105Z,45
2019-03-21T05:57:02.840Z,50
2019-03-21T05:58:03.312Z,50
2019-03-21T05:59:03.060Z,50
2019-03-21T06:00:03.283Z,50
2019-03-21T06:01:03.014Z,50
2019-03-21T06:02:03.244Z,50
2019-03-21T06:03:03.250Z,55
2019-03-21T06:04:03.200Z,55
2019-03-21T06:05:02.952Z,55
2019-03-21T06:06:03.172Z,55
2019-03-21T06:07:02.901Z,55
2019-03-21T06:08:02.645Z,55
2019-03-21T06:09:02.872Z,55
2019-03-21T06:10:03.098Z,60
2019-03-21T06:11:03.076Z,60
2019-03-21T06:12:02.806Z,60
2019-03-21T06:13:03.050Z,60
2019-03-21T06:14:02.771Z,65
2019-03-21T06:15:02.731Z,60
2019-03-21T06:16:02.978Z,60
2019-03-21T06:17:02.981Z,65
2019-03-21T06:18:02.688Z,65
2019-03-21T06:19:02.745Z,65
2019-03-21T06:20:04.120Z,65
2019-03-21T06:21:02.883Z,70
2019-03-21T06:22:02.869Z,70
2019-03-21T06:23:02.108Z,75
2019-03-21T06:24:02.826Z,75
2019-03-21T06:25:02.847Z,70
2019-03-21T06:26:02.824Z,70
2019-03-21T06:27:13.616Z,70
2019-03-21T06:28:02.764Z,70
2019-03-21T06:29:02.492Z,75
2019-03-21T06:30:02.874Z,75
2019-03-21T06:31:02.709Z,75
2019-03-21T06:32:02.722Z,75
2019-03-21T06:33:02.704Z,80
2019-03-21T06:34:02.176Z,85
2019-03-21T06:35:02.728Z,80
2019-03-21T06:36:02.366Z,80
2019-03-21T06:37:02.347Z,85
2019-03-21T06:38:02.592Z,90
2019-03-21T06:39:02.309Z,90
2019-03-21T06:40:02.044Z,85
2019-03-21T06:41:02.540Z,85
2019-03-21T06:42:02.260Z,85
2019-03-21T06:43:02.573Z,85
2019-03-21T06:44:02.474Z,80
2019-03-21T06:45:02.208Z,80
2019-03-21T06:46:02.189Z,80
2019-03-21T06:47:02.424Z,80
2019-03-21T06:48:02.817Z,80
2019-03-21T06:49:02.385Z,80
2019-03-21T06:50:02.119Z,80
2019-03-21T06:51:02.393Z,80
2019-03-21T06:52:02.422Z,85
2019-03-21T06:53:03.264Z,85
2019-03-21T06:54:02.302Z,85
2019-03-21T06:55:04.663Z,85
2019-03-21T06:56:02.269Z,85
2019-03-21T06:57:05.023Z,85
2019-03-21T06:58:02.227Z,85
2019-03-21T06:59:02.250Z,85
2019-03-21T07:00:02.203Z,90
2019-03-21T07:01:02.180Z,90
2019-03-21T07:02:02.168Z,90
2019-03-21T07:03:02.163Z,90
2019-03-21T07:04:13.670Z,90
2019-03-21T07:05:01.873Z,90
2019-03-21T07:06:02.096Z,90
2019-03-21T07:07:12.416Z,90
2019-03-21T07:08:02.063Z,90
2019-03-21T07:09:01.802Z,90
2019-03-21T07:10:02.033Z,90
2019-03-21T07:11:03.191Z,95
2019-03-21T07:12:01.995Z,95
2019-03-21T07:13:01.739Z,95
2019-03-21T07:14:01.714Z,95
2019-03-21T07:15:04.355Z,95
2019-03-21T07:16:01.930Z,95
2019-03-21T07:17:10.060Z,95
2019-03-21T07:18:01.912Z,95
2019-03-21T07:19:01.444Z,95
2019-03-21T07:20:01.864Z,95
2019-03-21T07:21:03.562Z,95
2019-03-21T07:22:01.645Z,95
2019-03-21T07:23:01.580Z,95
2019-03-21T07:24:01.795Z,95
2019-03-21T07:25:01.792Z,95
2019-03-21T07:26:01.769Z,95
2019-03-21T07:27:01.281Z,95
2019-03-21T07:28:01.730Z,95
2019-03-21T07:29:01.716Z,100
2019-03-21T07:30:01.707Z,100
2019-03-21T07:31:01.443Z,100
2019-03-21T07:32:01.687Z,100
2019-03-21T07:33:01.432Z,95
2019-03-21T07:34:01.555Z,100
2019-03-21T07:35:01.644Z,100
2019-03-21T07:36:01.385Z,100
2019-03-21T07:37:01.609Z,100
2019-03-21T07:38:01.344Z,100
2019-03-21T07:39:01.564Z,105
2019-03-21T07:40:01.569Z,105
2019-03-21T07:41:01.537Z,105
2019-03-21T07:42:03.653Z,105
2019-03-21T07:43:01.508Z,105
2019-03-21T07:44:01.505Z,105
2019-03-21T07:45:01.481Z,105
2019-03-21T07:46:01.460Z,105
2019-03-21T07:47:12.004Z,105
2019-03-21T07:48:01.430Z,105
2019-03-21T07:49:01.172Z,110
2019-03-21T07:50:01.406Z,105
2019-03-21T07:51:01.384Z,105
2019-03-21T07:52:01.369Z,105
2019-03-21T07:53:01.359Z,105
2019-03-21T07:54:01.130Z,105
2019-03-21T07:55:01.322Z,105
2019-03-21T07:56:01.311Z,105
2019-03-21T07:57:01.298Z,105
2019-03-21T07:58:01.981Z,105
2019-03-21T07:59:02.613Z,105
2019-03-21T08:00:01.276Z,110
2019-03-21T08:01:01.263Z,110
2019-03-21T08:02:01.226Z,110
2019-03-21T08:03:01.215Z,110
2019-03-21T08:04:02.941Z,110
2019-03-21T08:05:01.188Z,110
2019-03-21T08:06:00.925Z,110
2019-03-21T08:07:01.155Z,110
2019-03-21T08:08:00.901Z,110
2019-03-21T08:09:00.895Z,110
2019-03-21T08:10:01.144Z,110
2019-03-21T08:11:01.098Z,110
2019-03-21T08:12:01.092Z,110
2019-03-21T08:13:00.823Z,115
2019-03-21T08:14:01.070Z,115
2019-03-21T08:15:01.049Z,115
2019-03-21T08:16:01.037Z,115
2019-03-21T08:17:00.774Z,115
2019-03-21T08:18:01.020Z,115
2019-03-21T08:19:00.996Z,115
2019-03-21T08:20:00.738Z,115
2019-03-21T08:21:07.897Z,115
2019-03-21T08:22:00.955Z,115
2019-03-21T08:23:00.932Z,115
2019-03-21T08:24:00.925Z,115
2019-03-21T08:25:00.914Z,115
2019-03-21T08:26:00.906Z,115
2019-03-21T08:27:00.887Z,115
2019-03-21T08:28:01.226Z,115
2019-03-21T08:29:00.860Z,115
2019-03-21T08:30:00.849Z,115
2019-03-21T08:31:00.583Z,115
2019-03-21T08:32:00.580Z,115
2019-03-21T08:33:02.883Z,115
2019-03-21T08:34:00.554Z,115
2019-03-21T08:35:00.787Z,115
2019-03-21T08:36:00.551Z,115
2019-03-21T08:37:00.766Z,115
2019-03-21T08:38:00.748Z,115
2019-03-21T08:39:00.748Z,115
2019-03-21T08:40:00.346Z,115
2019-03-21T08:41:00.718Z,115
2019-03-21T08:42:00.704Z,115
2019-03-21T08:43:00.695Z,115
2019-03-21T08:44:00.685Z,115
2019-03-21T08:45:00.663Z,115
2019-03-21T08:46:00.404Z,115
2019-03-21T08:47:00.648Z,115
2019-03-21T08:48:00.647Z,115
2019-03-21T08:49:00.619Z,115
2019-03-21T08:50:00.642Z,115
2019-03-21T08:51:12.420Z,115
2019-03-21T08:52:00.326Z,115
2019-03-21T08:53:00.326Z,115
2019-03-21T08:54:00.558Z,115
2019-03-21T08:55:00.557Z,115
2019-03-21T08:56:00.533Z,115
2019-03-21T08:57:00.530Z,115
2019-03-21T08:58:00.266Z,115
2019-03-21T08:59:00.500Z,115
2019-03-21T09:00:00.488Z,115
2019-03-21T09:01:00.475Z,120
2019-03-21T09:02:00.463Z,115
2019-03-21T09:03:00.447Z,115
2019-03-21T09:03:59.945Z,115
2019-03-21T09:05:02.314Z,115
2019-03-21T09:06:00.203Z,115
2019-03-21T09:07:02.328Z,115
2019-03-21T09:08:00.394Z,115
2019-03-21T09:09:00.141Z,115
2019-03-21T09:10:00.456Z,115
2019-03-21T09:11:00.112Z,115
2019-03-21T09:12:00.343Z,115
2019-03-21T09:13:00.103Z,115
2019-03-21T09:14:00.077Z,115
2019-03-21T09:15:00.112Z,115
2019-03-21T09:16:00.302Z,115
2019-03-21T09:17:00.355Z,115
2019-03-21T09:18:02.602Z,115
2019-03-21T09:19:00.276Z,115
2019-03-21T09:20:00.439Z,115
2019-03-21T09:21:00.249Z,115
2019-03-21T09:21:59.984Z,115
2019-03-21T09:23:00.226Z,115
2019-03-21T09:24:00.216Z,115
2019-03-21T09:25:00.331Z,120
2019-03-21T09:26:00.949Z,120
2019-03-21T09:27:00.178Z,120
2019-03-21T09:28:13.990Z,120
2019-03-21T09:29:00.165Z,120
2019-03-21T09:30:03.178Z,120
2019-03-21T09:31:01.251Z,120
2019-03-21T09:32:00.136Z,120
2019-03-21T09:33:00.146Z,120
2019-03-21T09:34:00.107Z,120
2019-03-21T09:35:00.173Z,120
2019-03-21T09:36:00.082Z,120
2019-03-21T09:37:00.089Z,120
2019-03-21T09:38:00.079Z,120
2019-03-21T09:39:00.053Z,120
2019-03-21T09:39:59.535Z,120
2019-03-21T09:40:59.780Z,120
2019-03-21T09:41:59.779Z,120
2019-03-21T09:43:00.014Z,120
2019-03-21T09:43:59.507Z,120
2019-03-21T09:44:59.982Z,120
2019-03-21T09:45:59.727Z,120
2019-03-21T09:47:00.757Z,120
2019-03-21T09:47:59.952Z,120
2019-03-21T09:48:59.935Z,120
2019-03-21T09:50:01.828Z,120
2019-03-21T09:50:59.910Z,120
2019-03-21T09:51:59.672Z,120
2019-03-21T09:52:59.399Z,120
2019-03-21T09:54:11.405Z,120
2019-03-21T09:54:59.627Z,120
2019-03-21T09:56:01.126Z,120
2019-03-21T09:56:59.858Z,120
2019-03-21T09:57:59.603Z,120
2019-03-21T09:58:59.836Z,120
2019-03-21T09:59:59.819Z,120
2019-03-21T10:00:59.817Z,120
2019-03-21T10:02:01.657Z,120
2019-03-21T10:02:59.784Z,120
2019-03-21T10:03:59.786Z,120
2019-03-21T10:04:59.777Z,120
2019-03-21T10:05:59.755Z,120
2019-03-21T10:06:59.744Z,120
2019-03-21T10:08:01.893Z,120
2019-03-21T10:08:59.728Z,120
2019-03-21T10:09:59.704Z,120
2019-03-21T10:10:59.698Z,120
2019-03-21T10:11:59.705Z,120
2019-03-21T10:13:00.375Z,120
2019-03-21T10:13:59.685Z,120
2019-03-21T10:14:59.669Z,120
2019-03-21T10:15:59.651Z,120
2019-03-21T10:16:59.644Z,120
2019-03-21T10:17:59.632Z,120
2019-03-21T10:18:59.381Z,120
2019-03-21T10:19:59.860Z,120
2019-03-21T10:20:59.597Z,120
2019-03-21T10:21:59.340Z,120
2019-03-21T10:22:59.583Z,120
2019-03-21T10:23:59.135Z,120
2019-03-21T10:24:59.324Z,120
2019-03-21T10:25:59.305Z,120
2019-03-21T10:26:59.290Z,120
2019-03-21T10:27:59.525Z,120
2019-03-21T10:28:59.510Z,120
2019-03-21T10:29:59.503Z,120
2019-03-21T10:31:02.067Z,120
2019-03-21T10:31:59.237Z,120
2019-03-21T10:32:59.477Z,120
2019-03-21T10:33:59.486Z,120
2019-03-21T10:34:59.209Z,120
2019-03-21T10:35:59.215Z,120
2019-03-21T10:36:59.431Z,120
2019-03-21T10:37:58.923Z,120
2019-03-21T10:38:59.415Z,120
2019-03-21T10:39:59.183Z,120
2019-03-21T10:40:59.453Z,120
2019-03-21T10:41:59.387Z,120
2019-03-21T10:42:59.125Z,120
2019-03-21T10:43:59.377Z,120
2019-03-21T10:44:59.362Z,120
2019-03-21T10:45:59.354Z,120
2019-03-21T10:46:59.085Z,120
2019-03-21T10:47:59.077Z,120
2019-03-21T10:48:59.312Z,120
2019-03-21T10:49:59.310Z,120
2019-03-21T10:50:59.059Z,120
2019-03-21T10:52:04.559Z,120
2019-03-21T10:52:59.027Z,120
2019-03-21T10:53:59.272Z,120
2019-03-21T10:54:59.011Z,120
2019-03-21T10:55:59.307Z,120
2019-03-21T10:56:59.268Z,120
2019-03-21T10:57:59.223Z,120
2019-03-21T10:58:59.225Z,115
2019-03-21T11:00:01.544Z,115
2019-03-21T11:00:58.960Z,120
2019-03-21T11:02:09.549Z,120
2019-03-21T11:02:59.184Z,120
2019-03-21T11:03:59.172Z,120
2019-03-21T11:04:59.157Z,120
2019-03-21T11:05:59.154Z,120
2019-03-21T11:06:58.962Z,120
2019-03-21T11:07:59.150Z,120
2019-03-21T11:08:59.127Z,120
2019-03-21T11:09:59.110Z,120
2019-03-21T11:10:59.104Z,120
2019-03-21T11:11:58.855Z,120
2019-03-21T11:12:59.090Z,120
2019-03-21T11:13:59.075Z,120
2019-03-21T11:14:58.815Z,120
2019-03-21T11:15:59.110Z,120
2019-03-21T11:16:59.042Z,120
2019-03-21T11:17:59.103Z,120
2019-03-21T11:18:59.026Z,120
2019-03-21T11:19:59.015Z,120
2019-03-21T11:20:59.016Z,120
2019-03-21T11:22:10.711Z,120
2019-03-21T11:23:00.659Z,120
2019-03-21T11:23:58.781Z,120
2019-03-21T11:24:58.969Z,120
2019-03-21T11:25:58.960Z,115
2019-03-21T11:26:58.710Z,115
2019-03-21T11:27:58.978Z,115
2019-03-21T11:28:58.935Z,115
2019-03-21T11:29:58.931Z,120
2019-03-21T11:30:58.673Z,120
2019-03-21T11:31:58.675Z,120
2019-03-21T11:32:58.651Z,120
2019-03-21T11:33:58.885Z,120
2019-03-21T11:35:00.824Z,120
2019-03-21T11:35:58.865Z,115
2019-03-21T11:36:58.444Z,115
2019-03-21T11:37:58.617Z,115
2019-03-21T11:38:58.595Z,120
2019-03-21T11:39:58.857Z,120
2019-03-21T11:40:58.853Z,120
2019-03-21T11:41:58.869Z,120
2019-03-21T11:42:58.609Z,120
2019-03-21T11:43:58.845Z,120
2019-03-21T11:44:58.803Z,120
2019-03-21T11:46:00.168Z,120
2019-03-21T11:46:58.835Z,115
2019-03-21T11:47:59.862Z,115
2019-03-21T11:48:58.785Z,115
2019-03-21T11:49:58.859Z,115
2019-03-21T11:50:58.763Z,115
2019-03-21T11:51:58.741Z,115
2019-03-21T11:52:58.726Z,115
2019-03-21T11:53:58.703Z,115
2019-03-21T11:54:58.834Z,115
2019-03-21T11:55:58.753Z,115
2019-03-21T11:56:58.681Z,115
2019-03-21T11:57:58.434Z,115
2019-03-21T11:58:58.662Z,115
2019-03-21T12:00:01.893Z,115
2019-03-21T12:00:58.654Z,115
2019-03-21T12:01:58.630Z,115
2019-03-21T12:02:58.380Z,115
2019-03-21T12:03:58.617Z,115
2019-03-21T12:04:58.610Z,115
2019-03-21T12:05:58.605Z,115
2019-03-21T12:06:58.344Z,115
2019-03-21T12:07:58.577Z,115
2019-03-21T12:08:58.590Z,115
2019-03-21T12:09:58.563Z,115
2019-03-21T12:10:58.559Z,115
2019-03-21T12:11:58.544Z,115
2019-03-21T12:12:58.296Z,115
2019-03-21T12:13:58.535Z,115
2019-03-21T12:14:58.274Z,115
2019-03-21T12:15:58.504Z,115
2019-03-21T12:16:58.504Z,115
2019-03-21T12:17:58.520Z,115
2019-03-21T12:18:58.487Z,115
2019-03-21T12:19:58.478Z,115
2019-03-21T12:20:58.472Z,115
2019-03-21T12:21:58.459Z,115
2019-03-21T12:22:58.461Z,115
2019-03-21T12:23:58.197Z,115
2019-03-21T12:24:58.430Z,110
2019-03-21T12:25:58.426Z,110
2019-03-21T12:26:58.425Z,110
2019-03-21T12:27:58.164Z,110
2019-03-21T12:28:57.912Z,110
2019-03-21T12:29:58.152Z,110
2019-03-21T12:30:58.388Z,110
2019-03-21T12:31:58.378Z,110
2019-03-21T12:32:58.435Z,110
2019-03-21T12:33:59.306Z,110
2019-03-21T12:34:58.348Z,110
2019-03-21T12:35:58.346Z,110
2019-03-21T12:36:58.335Z,110
2019-03-21T12:37:58.328Z,110
2019-03-21T12:38:58.315Z,110
2019-03-21T12:39:58.346Z,110
2019-03-21T12:40:58.303Z,110
2019-03-21T12:41:58.289Z,110
2019-03-21T12:42:58.279Z,110
2019-03-21T12:43:58.023Z,110
2019-03-21T12:44:59.101Z,110
2019-03-21T12:45:58.258Z,110
2019-03-21T12:46:58.249Z,110
2019-03-21T12:47:58.244Z,110
2019-03-21T12:48:58.233Z,110
2019-03-21T12:49:58.229Z,110
2019-03-21T12:50:58.220Z,110
2019-03-21T12:51:57.961Z,110
2019-03-21T12:52:58.208Z,110
2019-03-21T12:53:58.188Z,110
2019-03-21T12:54:58.192Z,110
2019-03-21T12:55:58.189Z,110
2019-03-21T12:56:59.965Z,110
2019-03-21T12:57:58.158Z,110
2019-03-21T12:58:57.903Z,110
2019-03-21T12:59:58.140Z,110
2019-03-21T13:00:58.143Z,110
2019-03-21T13:01:57.879Z,110
2019-03-21T13:02:57.864Z,110
2019-03-21T13:03:58.100Z,110
2019-03-21T13:04:58.093Z,110
2019-03-21T13:05:58.096Z,110
2019-03-21T13:06:58.083Z,110
2019-03-21T13:07:58.068Z,110
2019-03-21T13:08:58.063Z,110
2019-03-21T13:09:58.052Z,110
2019-03-21T13:10:57.796Z,110
2019-03-21T13:11:57.788Z,110
2019-03-21T13:12:58.029Z,110
2019-03-21T13:13:58.026Z,110
2019-03-21T13:14:58.009Z,110
2019-03-21T13:15:58.010Z,110
2019-03-21T13:16:58.006Z,110
2019-03-21T13:18:00.229Z,110
2019-03-21T13:18:57.741Z,110
2019-03-21T13:19:57.973Z,110
2019-03-21T13:20:57.957Z,110
2019-03-21T13:21:57.955Z,110
2019-03-21T13:23:02.466Z,110
2019-03-21T13:23:57.953Z,110
2019-03-21T13:24:57.934Z,110
2019-03-21T13:25:57.684Z,110
2019-03-21T13:27:00.027Z,110
2019-03-21T13:27:57.906Z,110
2019-03-21T13:28:57.667Z,110
2019-03-21T13:29:57.893Z,110
2019-03-21T13:30:57.633Z,105
2019-03-21T13:31:57.881Z,105
2019-03-21T13:32:57.867Z,105
2019-03-21T13:33:57.882Z,105
2019-03-21T13:34:59.702Z,105
2019-03-21T13:35:57.907Z,105
2019-03-21T13:36:57.983Z,105
2019-03-21T13:37:58.601Z,105
2019-03-21T13:38:57.658Z,105
2019-03-21T13:39:57.813Z,105
2019-03-21T13:40:57.555Z,105
2019-03-21T13:41:57.802Z,105
2019-03-21T13:42:57.787Z,105
2019-03-21T13:43:57.780Z,105
2019-03-21T13:44:57.761Z,105
2019-03-21T13:45:57.785Z,105
2019-03-21T13:46:57.749Z,105
2019-03-21T13:47:57.824Z,105
2019-03-21T13:48:57.737Z,105
2019-03-21T13:49:57.734Z,105
2019-03-21T13:50:57.469Z,105
2019-03-21T13:51:57.855Z,105
2019-03-21T13:53:21.077Z,105
2019-03-21T13:53:57.686Z,105
2019-03-21T13:54:57.701Z,105
2019-03-21T13:55:57.436Z,105
2019-03-21T13:56:57.663Z,105
2019-03-21T13:57:57.658Z,105
2019-03-21T13:58:57.652Z,105
2019-03-21T13:59:57.642Z,105
2019-03-21T14:00:57.653Z,105
2019-03-21T14:01:57.624Z,105
2019-03-21T14:02:57.640Z,105
2019-03-21T14:03:57.140Z,105
2019-03-21T14:04:57.765Z,105
2019-03-21T14:06:00.090Z,105
2019-03-21T14:06:57.582Z,105
2019-03-21T14:07:57.584Z,105
2019-03-21T14:08:57.589Z,105
2019-03-21T14:09:57.315Z,105
2019-03-21T14:10:57.554Z,105
2019-03-21T14:11:57.303Z,105